sensor_id;sensor_type;location;lat;lon;timestamp;pressure;altitude;pressure_sealevel;temperature;humidity
76156;BME280;64906;51.290;7.348;2022-11-28T00:01:40;98226.75;;;19.60;47.77
76156;BME280;64906;51.290;7.348;2022-11-28T00:04:07;98229.69;;;19.64;47.65
76156;BME280;64906;51.290;7.348;2022-11-28T00:06:38;98240.44;;;19.60;47.72
76156;BME280;64906;51.290;7.348;2022-11-28T00:09:05;98230.41;;;19.56;47.68
76156;BME280;64906;51.290;7.348;2022-11-28T00:11:30;98229.66;;;19.50;47.74
76156;BME280;64906;51.290;7.348;2022-11-28T00:13:56;98226.09;;;19.50;47.94
76156;BME280;64906;51.290;7.348;2022-11-28T00:16:22;98219.81;;;19.49;47.76
76156;BME280;64906;51.290;7.348;2022-11-28T00:18:49;98226.69;;;19.47;47.79
76156;BME280;64906;51.290;7.348;2022-11-28T00:21:15;98231.03;;;19.48;47.83
76156;BME280;64906;51.290;7.348;2022-11-28T00:23:42;98221.00;;;19.43;47.79
76156;BME280;64906;51.290;7.348;2022-11-28T00:26:13;98224.25;;;19.45;47.78
76156;BME280;64906;51.290;7.348;2022-11-28T00:28:39;98215.84;;;19.42;48.13
76156;BME280;64906;51.290;7.348;2022-11-28T00:31:04;98212.28;;;19.41;47.74
76156;BME280;64906;51.290;7.348;2022-11-28T00:33:31;98216.66;;;19.42;47.57
76156;BME280;64906;51.290;7.348;2022-11-28T00:36:02;98212.88;;;19.38;47.89
76156;BME280;64906;51.290;7.348;2022-11-28T00:38:27;98225.97;;;19.41;47.88
76156;BME280;64906;51.290;7.348;2022-11-28T00:41:05;98210.44;;;19.37;47.77
76156;BME280;64906;51.290;7.348;2022-11-28T00:43:30;98205.25;;;19.35;48.01
76156;BME280;64906;51.290;7.348;2022-11-28T00:45:56;98208.59;;;19.32;47.79
76156;BME280;64906;51.290;7.348;2022-11-28T00:48:22;98210.81;;;19.30;48.06
76156;BME280;64906;51.290;7.348;2022-11-28T00:50:48;98206.47;;;19.29;47.98
76156;BME280;64906;51.290;7.348;2022-11-28T00:53:13;98202.06;;;19.28;47.98
76156;BME280;64906;51.290;7.348;2022-11-28T00:55:39;98205.09;;;19.27;47.84
76156;BME280;64906;51.290;7.348;2022-11-28T00:58:04;98205.91;;;19.27;47.89
76156;BME280;64906;51.290;7.348;2022-11-28T01:00:30;98197.19;;;19.25;48.27
76156;BME280;64906;51.290;7.348;2022-11-28T01:02:55;98196.66;;;19.23;48.04
76156;BME280;64906;51.290;7.348;2022-11-28T01:05:20;98195.78;;;19.28;47.90
76156;BME280;64906;51.290;7.348;2022-11-28T01:07:46;98194.53;;;19.20;48.08
76156;BME280;64906;51.290;7.348;2022-11-28T01:10:11;98189.88;;;19.21;48.09
76156;BME280;64906;51.290;7.348;2022-11-28T01:12:37;98185.00;;;19.18;48.14
76156;BME280;64906;51.290;7.348;2022-11-28T01:15:04;98192.91;;;19.19;48.04
76156;BME280;64906;51.290;7.348;2022-11-28T01:17:29;98181.44;;;19.17;47.93
76156;BME280;64906;51.290;7.348;2022-11-28T01:19:55;98179.31;;;19.14;48.17
76156;BME280;64906;51.290;7.348;2022-11-28T01:22:20;98176.88;;;19.13;48.03
76156;BME280;64906;51.290;7.348;2022-11-28T01:24:45;98176.88;;;19.13;48.21
76156;BME280;64906;51.290;7.348;2022-11-28T01:27:11;98173.03;;;19.14;48.16
76156;BME280;64906;51.290;7.348;2022-11-28T01:29:36;98178.28;;;19.10;48.22
76156;BME280;64906;51.290;7.348;2022-11-28T01:32:01;98180.75;;;19.12;48.38
76156;BME280;64906;51.290;7.348;2022-11-28T01:34:27;98178.56;;;19.09;48.07
76156;BME280;64906;51.290;7.348;2022-11-28T01:36:52;98176.66;;;19.09;48.12
76156;BME280;64906;51.290;7.348;2022-11-28T01:39:17;98180.81;;;19.07;48.19
76156;BME280;64906;51.290;7.348;2022-11-28T01:41:43;98169.56;;;19.08;47.98
76156;BME280;64906;51.290;7.348;2022-11-28T01:46:40;98175.34;;;19.07;47.99
76156;BME280;64906;51.290;7.348;2022-11-28T01:49:30;98162.47;;;19.07;47.98
76156;BME280;64906;51.290;7.348;2022-11-28T01:51:59;98161.38;;;19.08;48.47
76156;BME280;64906;51.290;7.348;2022-11-28T01:54:26;98158.19;;;19.01;48.13
76156;BME280;64906;51.290;7.348;2022-11-28T01:57:02;98153.63;;;18.97;48.22
76156;BME280;64906;51.290;7.348;2022-11-28T01:59:33;98160.09;;;19.01;48.15
76156;BME280;64906;51.290;7.348;2022-11-28T02:02:00;98157.59;;;19.04;48.06
76156;BME280;64906;51.290;7.348;2022-11-28T02:04:27;98153.31;;;18.98;48.09
76156;BME280;64906;51.290;7.348;2022-11-28T02:06:53;98148.94;;;18.97;48.04
76156;BME280;64906;51.290;7.348;2022-11-28T02:09:20;98150.28;;;19.00;48.22
76156;BME280;64906;51.290;7.348;2022-11-28T02:17:28;98139.72;;;18.93;48.28
76156;BME280;64906;51.290;7.348;2022-11-28T02:25:40;98125.53;;;18.91;48.19
76156;BME280;64906;51.290;7.348;2022-11-28T02:32:08;98106.97;;;18.88;48.19
76156;BME280;64906;51.290;7.348;2022-11-28T02:34:12;98103.44;;;18.88;48.24
76156;BME280;64906;51.290;7.348;2022-11-28T02:36:49;98115.50;;;18.87;48.20
76156;BME280;64906;51.290;7.348;2022-11-28T02:39:31;98114.13;;;18.84;48.33
76156;BME280;64906;51.290;7.348;2022-11-28T02:42:19;98109.78;;;18.83;48.35
76156;BME280;64906;51.290;7.348;2022-11-28T02:45:08;98096.66;;;18.85;48.22
76156;BME280;64906;51.290;7.348;2022-11-28T02:47:37;98097.75;;;18.84;48.15
76156;BME280;64906;51.290;7.348;2022-11-28T02:50:36;98085.47;;;18.82;48.14
76156;BME280;64906;51.290;7.348;2022-11-28T02:53:07;98079.50;;;18.80;48.22
76156;BME280;64906;51.290;7.348;2022-11-28T02:55:38;98083.06;;;18.80;48.28
76156;BME280;64906;51.290;7.348;2022-11-28T02:58:04;98077.06;;;18.78;48.30
76156;BME280;64906;51.290;7.348;2022-11-28T03:00:32;98091.34;;;18.75;48.32
76156;BME280;64906;51.290;7.348;2022-11-28T03:05:50;98095.19;;;18.74;48.31
76156;BME280;64906;51.290;7.348;2022-11-28T03:08:35;98094.06;;;18.75;48.16
76156;BME280;64906;51.290;7.348;2022-11-28T03:14:04;98090.00;;;18.72;48.22
76156;BME280;64906;51.290;7.348;2022-11-28T03:17:12;98097.47;;;18.67;48.33
76156;BME280;64906;51.290;7.348;2022-11-28T03:19:51;98089.56;;;18.65;48.33
76156;BME280;64906;51.290;7.348;2022-11-28T03:25:22;98091.19;;;18.66;48.45
76156;BME280;64906;51.290;7.348;2022-11-28T03:27:56;98082.69;;;18.68;48.33
76156;BME280;64906;51.290;7.348;2022-11-28T03:30:32;98085.19;;;18.64;48.37
76156;BME280;64906;51.290;7.348;2022-11-28T03:33:00;98089.88;;;18.64;48.59
76156;BME280;64906;51.290;7.348;2022-11-28T03:35:30;98089.06;;;18.63;48.39
76156;BME280;64906;51.290;7.348;2022-11-28T03:38:02;98089.34;;;18.62;48.50
76156;BME280;64906;51.290;7.348;2022-11-28T03:40:33;98085.50;;;18.63;48.55
76156;BME280;64906;51.290;7.348;2022-11-28T03:43:01;98089.56;;;18.65;48.44
76156;BME280;64906;51.290;7.348;2022-11-28T03:45:31;98086.09;;;18.60;48.51
76156;BME280;64906;51.290;7.348;2022-11-28T03:48:09;98092.69;;;18.59;48.66
76156;BME280;64906;51.290;7.348;2022-11-28T03:50:42;98107.44;;;18.58;48.47
76156;BME280;64906;51.290;7.348;2022-11-28T03:53:14;98103.09;;;18.57;48.51
76156;BME280;64906;51.290;7.348;2022-11-28T03:56:00;98092.16;;;18.57;48.50
76156;BME280;64906;51.290;7.348;2022-11-28T03:58:51;98094.59;;;18.58;48.54
76156;BME280;64906;51.290;7.348;2022-11-28T04:04:17;98094.38;;;18.55;48.65
76156;BME280;64906;51.290;7.348;2022-11-28T04:09:38;98084.03;;;18.52;48.53
76156;BME280;64906;51.290;7.348;2022-11-28T04:12:09;98080.78;;;18.50;48.60
76156;BME280;64906;51.290;7.348;2022-11-28T04:14:49;98076.97;;;18.51;48.68
76156;BME280;64906;51.290;7.348;2022-11-28T04:19:46;98079.41;;;18.52;48.53
76156;BME280;64906;51.290;7.348;2022-11-28T04:22:16;98073.69;;;18.49;48.57
76156;BME280;64906;51.290;7.348;2022-11-28T04:24:51;98081.69;;;18.45;48.57
76156;BME280;64906;51.290;7.348;2022-11-28T04:27:26;98075.38;;;18.45;48.49
76156;BME280;64906;51.290;7.348;2022-11-28T04:29:56;98074.38;;;18.41;48.75
76156;BME280;64906;51.290;7.348;2022-11-28T04:32:24;98075.38;;;18.45;48.62
76156;BME280;64906;51.290;7.348;2022-11-28T04:34:56;98076.00;;;18.42;48.74
76156;BME280;64906;51.290;7.348;2022-11-28T04:37:24;98068.09;;;18.40;48.75
76156;BME280;64906;51.290;7.348;2022-11-28T04:39:52;98061.00;;;18.39;48.75
76156;BME280;64906;51.290;7.348;2022-11-28T04:42:29;98066.19;;;18.41;48.85
76156;BME280;64906;51.290;7.348;2022-11-28T04:45:02;98062.91;;;18.39;48.66
76156;BME280;64906;51.290;7.348;2022-11-28T04:47:32;98071.94;;;18.39;48.86
76156;BME280;64906;51.290;7.348;2022-11-28T04:49:58;98063.19;;;18.37;48.74
76156;BME280;64906;51.290;7.348;2022-11-28T04:52:28;98062.66;;;18.35;48.81
76156;BME280;64906;51.290;7.348;2022-11-28T04:55:24;98060.75;;;18.36;48.67
76156;BME280;64906;51.290;7.348;2022-11-28T04:57:58;98063.50;;;18.36;48.72
76156;BME280;64906;51.290;7.348;2022-11-28T05:00:27;98066.50;;;18.34;48.74
76156;BME280;64906;51.290;7.348;2022-11-28T05:02:53;98071.16;;;18.34;48.83
76156;BME280;64906;51.290;7.348;2022-11-28T05:05:23;98073.38;;;18.32;48.81
76156;BME280;64906;51.290;7.348;2022-11-28T05:07:49;98079.66;;;18.32;48.55
76156;BME280;64906;51.290;7.348;2022-11-28T05:10:15;98085.94;;;18.33;48.52
76156;BME280;64906;51.290;7.348;2022-11-28T05:12:40;98076.91;;;18.32;48.71
76156;BME280;64906;51.290;7.348;2022-11-28T05:15:06;98078.84;;;18.32;48.77
76156;BME280;64906;51.290;7.348;2022-11-28T05:17:32;98063.56;;;18.31;48.82
76156;BME280;64906;51.290;7.348;2022-11-28T05:19:58;98074.50;;;18.31;48.65
76156;BME280;64906;51.290;7.348;2022-11-28T05:22:23;98067.91;;;18.32;48.68
76156;BME280;64906;51.290;7.348;2022-11-28T05:24:49;98065.69;;;18.34;48.74
76156;BME280;64906;51.290;7.348;2022-11-28T05:27:14;98062.44;;;18.32;48.73
76156;BME280;64906;51.290;7.348;2022-11-28T05:29:39;98072.78;;;18.35;48.41
76156;BME280;64906;51.290;7.348;2022-11-28T05:32:10;98065.59;;;18.44;48.42
76156;BME280;64906;51.290;7.348;2022-11-28T05:34:36;98048.13;;;18.40;48.36
76156;BME280;64906;51.290;7.348;2022-11-28T05:37:02;98056.25;;;18.45;48.43
76156;BME280;64906;51.290;7.348;2022-11-28T05:39:27;98047.19;;;18.49;48.17
76156;BME280;64906;51.290;7.348;2022-11-28T05:41:56;98070.91;;;18.54;48.10
76156;BME280;64906;51.290;7.348;2022-11-28T05:44:21;98096.97;;;18.65;47.81
76156;BME280;64906;51.290;7.348;2022-11-28T05:46:46;98087.16;;;18.64;47.74
76156;BME280;64906;51.290;7.348;2022-11-28T05:49:11;98081.59;;;18.69;47.60
76156;BME280;64906;51.290;7.348;2022-11-28T05:51:37;98082.31;;;18.74;47.60
76156;BME280;64906;51.290;7.348;2022-11-28T05:54:02;98079.06;;;18.72;47.69
76156;BME280;64906;51.290;7.348;2022-11-28T05:56:28;98080.19;;;18.71;47.95
76156;BME280;64906;51.290;7.348;2022-11-28T05:58:53;98084.53;;;18.72;47.33
76156;BME280;64906;51.290;7.348;2022-11-28T06:01:24;98083.66;;;18.77;47.48
76156;BME280;64906;51.290;7.348;2022-11-28T06:03:50;98077.59;;;18.80;47.52
76156;BME280;64906;51.290;7.348;2022-11-28T06:06:23;98079.94;;;18.87;47.21
76156;BME280;64906;51.290;7.348;2022-11-28T06:08:49;98065.13;;;18.88;47.47
76156;BME280;64906;51.290;7.348;2022-11-28T06:11:21;98060.50;;;18.88;47.23
76156;BME280;64906;51.290;7.348;2022-11-28T06:13:47;98061.00;;;18.90;47.20
76156;BME280;64906;51.290;7.348;2022-11-28T06:16:15;98064.75;;;18.94;47.17
76156;BME280;64906;51.290;7.348;2022-11-28T06:18:41;98060.94;;;18.95;47.23
76156;BME280;64906;51.290;7.348;2022-11-28T06:21:08;98060.63;;;18.97;47.16
76156;BME280;64906;51.290;7.348;2022-11-28T06:23:34;98074.31;;;18.97;47.32
76156;BME280;64906;51.290;7.348;2022-11-28T06:26:04;98073.69;;;19.00;47.19
76156;BME280;64906;51.290;7.348;2022-11-28T06:28:30;98077.25;;;19.00;47.46
76156;BME280;64906;51.290;7.348;2022-11-28T06:30:56;98080.16;;;19.04;47.32
76156;BME280;64906;51.290;7.348;2022-11-28T06:33:21;98079.59;;;19.07;47.19
76156;BME280;64906;51.290;7.348;2022-11-28T06:35:46;98074.31;;;19.10;47.24
76156;BME280;64906;51.290;7.348;2022-11-28T06:38:12;98067.66;;;19.16;47.26
76156;BME280;64906;51.290;7.348;2022-11-28T06:40:39;98081.75;;;19.23;47.01
76156;BME280;64906;51.290;7.348;2022-11-28T06:43:04;98084.47;;;19.23;47.15
76156;BME280;64906;51.290;7.348;2022-11-28T06:45:33;98080.03;;;19.27;47.39
76156;BME280;64906;51.290;7.348;2022-11-28T06:47:59;98063.63;;;19.27;47.11
76156;BME280;64906;51.290;7.348;2022-11-28T06:50:24;98064.16;;;19.29;47.23
76156;BME280;64906;51.290;7.348;2022-11-28T06:52:50;98063.88;;;19.31;47.19
76156;BME280;64906;51.290;7.348;2022-11-28T06:55:15;98064.06;;;19.34;47.28
76156;BME280;64906;51.290;7.348;2022-11-28T06:57:41;98065.91;;;19.39;47.07
76156;BME280;64906;51.290;7.348;2022-11-28T07:00:07;98067.19;;;19.41;47.11
76156;BME280;64906;51.290;7.348;2022-11-28T07:02:33;98064.38;;;19.46;46.99
76156;BME280;64906;51.290;7.348;2022-11-28T07:04:58;98054.53;;;19.45;47.01
76156;BME280;64906;51.290;7.348;2022-11-28T07:07:23;98055.28;;;19.51;47.26
76156;BME280;64906;51.290;7.348;2022-11-28T07:09:49;98057.09;;;19.55;46.85
76156;BME280;64906;51.290;7.348;2022-11-28T07:12:15;98066.91;;;19.56;46.66
76156;BME280;64906;51.290;7.348;2022-11-28T07:14:40;98075.84;;;19.62;46.88
76156;BME280;64906;51.290;7.348;2022-11-28T07:17:05;98078.50;;;19.67;46.67
76156;BME280;64906;51.290;7.348;2022-11-28T07:19:30;98085.28;;;19.69;46.46
76156;BME280;64906;51.290;7.348;2022-11-28T07:21:56;98079.69;;;19.74;46.24
76156;BME280;64906;51.290;7.348;2022-11-28T07:24:21;98081.22;;;19.80;46.45
76156;BME280;64906;51.290;7.348;2022-11-28T07:26:47;98074.22;;;19.88;46.31
76156;BME280;64906;51.290;7.348;2022-11-28T07:29:14;98089.22;;;19.90;46.32
76156;BME280;64906;51.290;7.348;2022-11-28T07:31:40;98093.59;;;19.91;46.38
76156;BME280;64906;51.290;7.348;2022-11-28T07:34:05;98076.84;;;19.93;46.25
76156;BME280;64906;51.290;7.348;2022-11-28T07:36:31;98084.97;;;19.98;46.24
76156;BME280;64906;51.290;7.348;2022-11-28T07:39:00;98083.34;;;19.97;46.10
76156;BME280;64906;51.290;7.348;2022-11-28T07:41:27;98074.22;;;20.01;46.13
76156;BME280;64906;51.290;7.348;2022-11-28T07:43:55;98082.34;;;20.07;46.12
76156;BME280;64906;51.290;7.348;2022-11-28T07:46:21;98082.50;;;20.10;45.93
76156;BME280;64906;51.290;7.348;2022-11-28T07:48:47;98079.97;;;20.14;45.98
76156;BME280;64906;51.290;7.348;2022-11-28T07:51:15;98078.91;;;20.15;45.86
76156;BME280;64906;51.290;7.348;2022-11-28T07:53:41;98086.81;;;20.16;45.79
76156;BME280;64906;51.290;7.348;2022-11-28T07:56:09;98090.03;;;20.18;45.87
76156;BME280;64906;51.290;7.348;2022-11-28T07:58:37;98081.22;;;20.21;45.83
76156;BME280;64906;51.290;7.348;2022-11-28T08:01:17;98080.91;;;20.23;45.61
76156;BME280;64906;51.290;7.348;2022-11-28T08:03:45;98083.53;;;20.28;45.59
76156;BME280;64906;51.290;7.348;2022-11-28T08:06:12;98085.97;;;20.29;45.59
76156;BME280;64906;51.290;7.348;2022-11-28T08:08:37;98080.69;;;20.33;45.28
76156;BME280;64906;51.290;7.348;2022-11-28T08:11:05;98086.66;;;20.35;45.37
76156;BME280;64906;51.290;7.348;2022-11-28T08:13:31;98081.78;;;20.32;45.38
76156;BME280;64906;51.290;7.348;2022-11-28T08:15:57;98082.50;;;20.37;45.29
76156;BME280;64906;51.290;7.348;2022-11-28T08:18:27;98081.06;;;20.40;45.50
76156;BME280;64906;51.290;7.348;2022-11-28T08:21:23;98083.38;;;20.46;45.51
76156;BME280;64906;51.290;7.348;2022-11-28T08:23:48;98088.53;;;20.48;45.39
76156;BME280;64906;51.290;7.348;2022-11-28T08:26:16;98087.13;;;20.50;45.32
76156;BME280;64906;51.290;7.348;2022-11-28T08:28:42;98087.31;;;20.54;45.22
76156;BME280;64906;51.290;7.348;2022-11-28T08:31:13;98083.16;;;20.56;45.34
76156;BME280;64906;51.290;7.348;2022-11-28T08:33:39;98082.53;;;20.59;45.63
76156;BME280;64906;51.290;7.348;2022-11-28T08:36:06;98081.94;;;20.62;45.82
76156;BME280;64906;51.290;7.348;2022-11-28T08:38:32;98086.78;;;20.65;45.72
76156;BME280;64906;51.290;7.348;2022-11-28T08:41:01;98083.72;;;20.67;46.07
76156;BME280;64906;51.290;7.348;2022-11-28T08:43:27;98096.31;;;20.68;45.88
76156;BME280;64906;51.290;7.348;2022-11-28T08:45:52;98080.34;;;20.70;46.02
76156;BME280;64906;51.290;7.348;2022-11-28T08:48:17;98089.09;;;20.72;45.86
76156;BME280;64906;51.290;7.348;2022-11-28T08:50:47;98093.13;;;20.74;45.89
76156;BME280;64906;51.290;7.348;2022-11-28T08:53:12;98092.50;;;20.77;45.96
76156;BME280;64906;51.290;7.348;2022-11-28T08:55:40;98097.38;;;20.80;45.78
76156;BME280;64906;51.290;7.348;2022-11-28T08:58:06;98089.00;;;20.85;46.01
76156;BME280;64906;51.290;7.348;2022-11-28T09:00:32;98094.69;;;20.89;45.54
76156;BME280;64906;51.290;7.348;2022-11-28T09:02:57;98101.81;;;20.90;45.66
76156;BME280;64906;51.290;7.348;2022-11-28T09:05:23;98101.00;;;20.89;45.63
76156;BME280;64906;51.290;7.348;2022-11-28T09:07:48;98098.97;;;20.95;45.47
76156;BME280;64906;51.290;7.348;2022-11-28T09:10:13;98109.63;;;20.96;45.42
76156;BME280;64906;51.290;7.348;2022-11-28T09:12:39;98113.69;;;20.99;45.59
76156;BME280;64906;51.290;7.348;2022-11-28T09:15:04;98113.38;;;21.00;45.39
76156;BME280;64906;51.290;7.348;2022-11-28T09:17:30;98125.16;;;21.01;45.42
76156;BME280;64906;51.290;7.348;2022-11-28T09:19:55;98123.91;;;21.07;45.32
76156;BME280;64906;51.290;7.348;2022-11-28T09:22:20;98119.44;;;21.11;45.35
76156;BME280;64906;51.290;7.348;2022-11-28T09:24:46;98117.97;;;21.13;45.38
76156;BME280;64906;51.290;7.348;2022-11-28T09:27:11;98115.75;;;21.15;45.23
76156;BME280;64906;51.290;7.348;2022-11-28T09:29:36;98112.19;;;21.15;45.24
76156;BME280;64906;51.290;7.348;2022-11-28T09:32:01;98121.44;;;21.19;45.22
76156;BME280;64906;51.290;7.348;2022-11-28T09:34:27;98124.03;;;21.24;45.30
76156;BME280;64906;51.290;7.348;2022-11-28T09:36:52;98120.66;;;21.27;45.18
76156;BME280;64906;51.290;7.348;2022-11-28T09:39:17;98129.09;;;21.30;45.09
76156;BME280;64906;51.290;7.348;2022-11-28T09:41:55;98120.84;;;21.30;45.28
76156;BME280;64906;51.290;7.348;2022-11-28T09:44:25;98128.16;;;21.35;45.04
76156;BME280;64906;51.290;7.348;2022-11-28T09:46:58;98132.66;;;21.31;45.23
76156;BME280;64906;51.290;7.348;2022-11-28T09:49:38;98124.03;;;21.24;45.25
76156;BME280;64906;51.290;7.348;2022-11-28T09:52:18;98124.34;;;21.22;45.59
76156;BME280;64906;51.290;7.348;2022-11-28T09:57:45;98125.66;;;21.25;45.46
76156;BME280;64906;51.290;7.348;2022-11-28T10:00:23;98130.81;;;21.26;45.39
76156;BME280;64906;51.290;7.348;2022-11-28T10:03:15;98131.16;;;21.25;45.42
76156;BME280;64906;51.290;7.348;2022-11-28T10:08:34;98123.09;;;21.28;45.41
76156;BME280;64906;51.290;7.348;2022-11-28T10:14:04;98129.22;;;21.25;45.51
76156;BME280;64906;51.290;7.348;2022-11-28T10:16:57;98122.28;;;21.28;45.26
76156;BME280;64906;51.290;7.348;2022-11-28T10:19:48;98128.91;;;21.27;45.26
76156;BME280;64906;51.290;7.348;2022-11-28T10:22:18;98125.84;;;21.28;45.49
76156;BME280;64906;51.290;7.348;2022-11-28T10:24:55;98123.22;;;21.23;45.37
76156;BME280;64906;51.290;7.348;2022-11-28T10:27:33;98120.34;;;21.28;45.58
76156;BME280;64906;51.290;7.348;2022-11-28T10:30:04;98118.44;;;21.29;45.06
76156;BME280;64906;51.290;7.348;2022-11-28T10:32:37;98120.66;;;21.27;45.31
76156;BME280;64906;51.290;7.348;2022-11-28T10:35:21;98117.28;;;21.30;45.27
76156;BME280;64906;51.290;7.348;2022-11-28T10:37:49;98121.50;;;21.27;45.46
76156;BME280;64906;51.290;7.348;2022-11-28T10:40:23;98122.59;;;21.26;45.18
76156;BME280;64906;51.290;7.348;2022-11-28T10:43:11;98127.28;;;21.26;45.46
76156;BME280;64906;51.290;7.348;2022-11-28T10:46:12;98121.97;;;21.29;45.64
76156;BME280;64906;51.290;7.348;2022-11-28T10:51:33;98119.22;;;21.29;45.27
76156;BME280;64906;51.290;7.348;2022-11-28T10:54:14;98125.53;;;21.30;45.61
76156;BME280;64906;51.290;7.348;2022-11-28T11:04:51;98125.66;;;21.25;45.81
76156;BME280;64906;51.290;7.348;2022-11-28T11:07:30;98120.78;;;21.22;45.75
76156;BME280;64906;51.290;7.348;2022-11-28T11:10:16;98127.22;;;21.17;46.48
76156;BME280;64906;51.290;7.348;2022-11-28T11:12:42;98116.38;;;21.12;47.22
76156;BME280;64906;51.290;7.348;2022-11-28T11:17:54;98112.81;;;21.12;48.27
76156;BME280;64906;51.290;7.348;2022-11-28T11:20:34;98120.22;;;21.11;48.62
76156;BME280;64906;51.290;7.348;2022-11-28T11:23:11;98115.56;;;21.12;49.16
76156;BME280;64906;51.290;7.348;2022-11-28T11:25:54;98118.63;;;21.10;49.78
76156;BME280;64906;51.290;7.348;2022-11-28T11:28:42;98124.94;;;21.11;49.73
76156;BME280;64906;51.290;7.348;2022-11-28T11:31:19;98122.19;;;21.11;49.97
76156;BME280;64906;51.290;7.348;2022-11-28T11:33:49;98118.09;;;21.08;50.35
76156;BME280;64906;51.290;7.348;2022-11-28T11:36:24;98121.03;;;21.12;50.60
76156;BME280;64906;51.290;7.348;2022-11-28T11:38:50;98115.38;;;21.08;50.91
76156;BME280;64906;51.290;7.348;2022-11-28T11:41:29;98123.28;;;21.10;51.44
76156;BME280;64906;51.290;7.348;2022-11-28T11:43:56;98112.94;;;21.07;51.36
76156;BME280;64906;51.290;7.348;2022-11-28T11:46:57;98112.63;;;21.08;51.63
76156;BME280;64906;51.290;7.348;2022-11-28T11:51:56;98118.63;;;21.10;51.58
76156;BME280;64906;51.290;7.348;2022-11-28T11:54:22;98121.88;;;21.12;51.52
76156;BME280;64906;51.290;7.348;2022-11-28T11:56:49;98125.56;;;21.08;51.91
76156;BME280;64906;51.290;7.348;2022-11-28T11:59:37;98123.13;;;21.06;52.27
76156;BME280;64906;51.290;7.348;2022-11-28T12:02:05;98127.16;;;21.09;52.50
76156;BME280;64906;51.290;7.348;2022-11-28T12:04:40;98117.00;;;21.09;52.71
76156;BME280;64906;51.290;7.348;2022-11-28T12:07:16;98125.88;;;21.06;52.99
76156;BME280;64906;51.290;7.348;2022-11-28T12:09:47;98127.78;;;21.06;52.90
76156;BME280;64906;51.290;7.348;2022-11-28T12:12:19;98129.41;;;21.07;52.93
76156;BME280;64906;51.290;7.348;2022-11-28T12:14:46;98121.78;;;21.04;53.23
76156;BME280;64906;51.290;7.348;2022-11-28T12:25:52;98126.78;;;21.02;53.23
76156;BME280;64906;51.290;7.348;2022-11-28T12:28:40;98128.41;;;21.03;52.70
76156;BME280;64906;51.290;7.348;2022-11-28T12:31:36;98132.06;;;20.98;52.39
76156;BME280;64906;51.290;7.348;2022-11-28T12:39:55;98126.72;;;20.93;52.01
76156;BME280;64906;51.290;7.348;2022-11-28T12:42:45;98127.19;;;20.95;52.04
76156;BME280;64906;51.290;7.348;2022-11-28T12:45:34;98122.00;;;20.94;51.97
76156;BME280;64906;51.290;7.348;2022-11-28T12:48:09;98125.88;;;20.93;51.99
76156;BME280;64906;51.290;7.348;2022-11-28T12:50:44;98122.63;;;20.91;52.07
76156;BME280;64906;51.290;7.348;2022-11-28T12:56:22;98125.19;;;20.87;51.55
76156;BME280;64906;51.290;7.348;2022-11-28T12:58:46;98119.50;;;20.84;51.41
76156;BME280;64906;51.290;7.348;2022-11-28T13:03:54;98123.56;;;20.86;51.22
76156;BME280;64906;51.290;7.348;2022-11-28T13:06:56;98119.19;;;20.85;51.33
76156;BME280;64906;51.290;7.348;2022-11-28T13:09:32;98123.38;;;20.83;51.04
76156;BME280;64906;51.290;7.348;2022-11-28T13:15:12;98120.13;;;20.81;50.90
76156;BME280;64906;51.290;7.348;2022-11-28T13:17:45;98125.63;;;20.81;50.63
76156;BME280;64906;51.290;7.348;2022-11-28T13:28:11;98122.19;;;20.75;50.64
76156;BME280;64906;51.290;7.348;2022-11-28T13:30:49;98120.25;;;20.76;50.50
76156;BME280;64906;51.290;7.348;2022-11-28T13:33:34;98125.22;;;20.74;50.59
76156;BME280;64906;51.290;7.348;2022-11-28T13:36:01;98127.00;;;20.70;50.38
76156;BME280;64906;51.290;7.348;2022-11-28T13:38:53;98131.34;;;20.71;50.17
76156;BME280;64906;51.290;7.348;2022-11-28T13:41:24;98127.28;;;20.68;50.02
76156;BME280;64906;51.290;7.348;2022-11-28T13:44:06;98131.44;;;20.66;49.97
76156;BME280;64906;51.290;7.348;2022-11-28T13:46:40;98133.09;;;20.67;50.05
76156;BME280;64906;51.290;7.348;2022-11-28T13:49:25;98129.03;;;20.64;50.12
76156;BME280;64906;51.290;7.348;2022-11-28T13:52:30;98138.69;;;20.62;49.86
76156;BME280;64906;51.290;7.348;2022-11-28T13:54:57;98135.94;;;20.62;49.89
76156;BME280;64906;51.290;7.348;2022-11-28T13:57:34;98127.53;;;20.58;50.02
76156;BME280;64906;51.290;7.348;2022-11-28T14:02:48;98125.41;;;20.55;49.85
76156;BME280;64906;51.290;7.348;2022-11-28T14:05:29;98130.06;;;20.55;49.49
76156;BME280;64906;51.290;7.348;2022-11-28T14:07:56;98126.81;;;20.53;49.68
76156;BME280;64906;51.290;7.348;2022-11-28T14:18:48;98138.41;;;20.50;49.28
76156;BME280;64906;51.290;7.348;2022-11-28T14:26:33;98137.41;;;20.46;49.10
76156;BME280;64906;51.290;7.348;2022-11-28T14:29:03;98141.25;;;20.45;49.03
76156;BME280;64906;51.290;7.348;2022-11-28T14:31:32;98135.25;;;20.43;49.25
76156;BME280;64906;51.290;7.348;2022-11-28T14:34:00;98145.44;;;20.42;49.18
76156;BME280;64906;51.290;7.348;2022-11-28T14:36:28;98154.59;;;20.38;49.25
76156;BME280;64906;51.290;7.348;2022-11-28T14:49:45;98162.94;;;20.33;49.34
76156;BME280;64906;51.290;7.348;2022-11-28T14:52:21;98164.03;;;20.32;49.08
76156;BME280;64906;51.290;7.348;2022-11-28T14:54:49;98165.16;;;20.31;49.09
76156;BME280;64906;51.290;7.348;2022-11-28T14:57:22;98164.84;;;20.32;49.05
76156;BME280;64906;51.290;7.348;2022-11-28T14:59:49;98165.16;;;20.31;48.91
76156;BME280;64906;51.290;7.348;2022-11-28T15:02:38;98169.50;;;20.32;48.81
76156;BME280;64906;51.290;7.348;2022-11-28T15:05:36;98170.44;;;20.27;48.97
76156;BME280;64906;51.290;7.348;2022-11-28T15:08:19;98176.22;;;20.26;49.10
76156;BME280;64906;51.290;7.348;2022-11-28T15:10:48;98175.41;;;20.25;48.90
76156;BME280;64906;51.290;7.348;2022-11-28T15:13:30;98181.50;;;20.22;49.08
76156;BME280;64906;51.290;7.348;2022-11-28T15:16:02;98175.69;;;20.24;49.05
76156;BME280;64906;51.290;7.348;2022-11-28T15:18:29;98182.31;;;20.23;48.74